Time;durP1;ratioP1;P1;durP2;ratioP2;P2;SDS_P1;SDS_P2;PMS_P1;PMS_P2;Temp;Humidity;BMP_temperature;BMP_pressure;BME280_temperature;BME280_humidity;BME280_pressure;Samples;Min_cycle;Max_cycle;Signal;HPM_P1;HPM_P2
2023/02/20 00:02:12;;;;;;;9.77;6.43;;;5.40;99.90;;;;;;2615135;54;20499;-74
2023/02/20 00:08:00;;;;;;;10.40;6.57;;;5.30;99.90;;;;;;2615621;39;20520;-73
2023/02/20 00:11:13;;;;;;;9.60;7.90;;;5.40;99.90;;;;;;2615080;54;20386;-74
2023/02/20 00:20:09;;;;;;;11.33;8.10;;;5.40;99.90;;;;;;2615220;54;20873;-75
2023/02/20 00:25:57;;;;;;;17.20;7.50;;;5.30;99.90;;;;;;2615725;54;20493;-73
2023/02/20 00:38:29;;;;;;;12.60;9.10;;;5.50;99.90;;;;;;2614361;54;20363;-73
2023/02/20 00:44:17;;;;;;;15.70;10.00;;;5.60;99.90;;;;;;2614375;54;20123;-72
2023/02/20 00:50:05;;;;;;;18.20;10.80;;;5.80;99.90;;;;;;2614676;54;21460;-73
2023/02/20 00:55:52;;;;;;;20.30;11.10;;;5.80;99.90;;;;;;2614255;54;20907;-72
2023/02/20 01:01:39;;;;;;;17.23;10.87;;;5.80;99.90;;;;;;2615107;39;20564;-74
2023/02/20 01:07:26;;;;;;;20.13;10.57;;;5.90;99.90;;;;;;2614248;54;20168;-73
2023/02/20 01:16:36;;;;;;;22.00;12.77;;;6.00;99.90;;;;;;2615866;54;20409;-74
2023/02/20 01:22:23;;;;;;;18.30;8.47;;;5.90;99.90;;;;;;2615577;54;20222;-73
2023/02/20 01:28:11;;;;;;;19.50;11.80;;;6.10;99.90;;;;;;2615704;54;20143;-74
2023/02/20 01:33:59;;;;;;;18.93;12.87;;;6.20;99.90;;;;;;2616036;54;20122;-73
2023/02/20 01:39:47;;;;;;;16.00;11.57;;;6.20;99.90;;;;;;2615754;54;20119;-73
2023/02/20 01:45:37;;;;;;;14.07;11.00;;;6.30;99.90;;;;;;2615774;54;20413;-73
2023/02/20 01:51:26;;;;;;;17.93;10.73;;;6.30;99.90;;;;;;2616134;39;20863;-73
2023/02/20 01:57:18;;;;;;;15.77;10.93;;;6.20;99.90;;;;;;2615524;54;20359;-73
2023/02/20 02:03:11;;;;;;;17.17;11.30;;;6.10;99.90;;;;;;2616077;54;20387;-75
2023/02/20 02:09:04;;;;;;;15.50;9.70;;;6.00;99.90;;;;;;2615916;54;20378;-76
2023/02/20 02:15:00;;;;;;;13.90;10.13;;;6.20;99.90;;;;;;2614497;54;20542;-74
2023/02/20 02:38:21;;;;;;;18.60;12.17;;;6.10;99.90;;;;;;2614420;54;20415;-74
2023/02/20 02:50:45;;;;;;;22.53;10.40;;;6.10;99.90;;;;;;2614742;54;20387;-75
2023/02/20 02:56:40;;;;;;;17.50;12.53;;;6.20;99.90;;;;;;2614556;54;20403;-74
2023/02/20 03:02:32;;;;;;;20.47;13.13;;;6.00;99.90;;;;;;2615745;54;20395;-75
2023/02/20 03:12:01;;;;;;;21.17;11.23;;;6.10;99.90;;;;;;2614474;54;20453;-75
2023/02/20 03:21:01;;;;;;;22.27;12.70;;;5.90;99.90;;;;;;2614229;47;20617;-75
2023/02/20 03:26:52;;;;;;;20.53;12.70;;;6.00;99.90;;;;;;2614345;54;20437;-75
2023/02/20 03:44:59;;;;;;;23.03;13.20;;;6.00;99.90;;;;;;2614381;54;21026;-75
2023/02/20 03:57:01;;;;;;;20.33;13.63;;;5.80;99.90;;;;;;2616405;31;20824;-73
2023/02/20 04:02:53;;;;;;;21.77;11.10;;;5.80;99.90;;;;;;2616692;39;20778;-73
2023/02/20 04:08:51;;;;;;;18.47;10.43;;;5.80;99.90;;;;;;2616003;54;20423;-73
2023/02/20 04:11:56;;;;;;;19.07;12.00;;;5.70;99.90;;;;;;2615939;54;20502;-74
2023/02/20 04:17:50;;;;;;;17.77;9.83;;;5.80;99.90;;;;;;2615690;54;20955;-72
2023/02/20 04:23:44;;;;;;;24.00;12.13;;;5.60;99.90;;;;;;2616194;54;20402;-73
2023/02/20 04:29:32;;;;;;;19.00;11.60;;;5.70;99.90;;;;;;2616241;54;20377;-73
2023/02/20 04:35:20;;;;;;;16.30;9.60;;;5.80;99.90;;;;;;2615904;54;20118;-73
2023/02/20 04:41:08;;;;;;;17.20;10.57;;;5.80;99.90;;;;;;2616072;54;20339;-73
2023/02/20 04:46:57;;;;;;;17.43;10.47;;;5.80;99.90;;;;;;2616237;54;20169;-74
2023/02/20 04:52:45;;;;;;;21.90;9.63;;;5.70;99.90;;;;;;2616131;54;20393;-71
2023/02/20 04:58:35;;;;;;;19.47;11.90;;;5.70;99.90;;;;;;2615630;54;20166;-74
2023/02/20 05:04:23;;;;;;;15.63;11.00;;;5.80;99.90;;;;;;2615967;54;21032;-74
2023/02/20 05:10:16;;;;;;;11.90;8.27;;;5.80;99.90;;;;;;2615880;54;20147;-73
2023/02/20 05:13:14;;;;;;;17.23;11.23;;;5.70;99.90;;;;;;2615858;54;20737;-74
2023/02/20 05:15:39;;;;;;;16.83;8.60;;;5.70;99.90;;;;;;2615740;54;20426;-74
2023/02/20 05:27:34;;;;;;;14.47;9.10;;;5.80;99.90;;;;;;2615900;39;20733;-73
2023/02/20 05:33:21;;;;;;;12.33;6.60;;;5.80;99.90;;;;;;2615735;54;20122;-73
2023/02/20 05:39:09;;;;;;;15.63;8.30;;;5.80;99.90;;;;;;2616185;39;20523;-74
2023/02/20 05:44:57;;;;;;;14.70;8.10;;;5.90;99.90;;;;;;2615658;54;20129;-73
2023/02/20 05:50:44;;;;;;;15.30;8.50;;;5.90;99.90;;;;;;2616083;54;20163;-74
2023/02/20 05:56:32;;;;;;;18.33;8.67;;;5.90;99.90;;;;;;2615989;54;20130;-74
2023/02/20 06:02:19;;;;;;;14.60;8.37;;;5.90;99.90;;;;;;2615647;54;20135;-74
2023/02/20 06:08:08;;;;;;;9.60;6.47;;;6.00;99.90;;;;;;2615390;54;20651;-72
2023/02/20 06:17:46;;;;;;;19.70;8.60;;;6.10;99.90;;;;;;2615455;54;20398;-72
2023/02/20 06:23:37;;;;;;;9.23;6.07;;;6.10;99.90;;;;;;2615620;54;20403;-73
2023/02/20 06:29:25;;;;;;;15.40;7.50;;;6.20;99.90;;;;;;2615999;54;21303;-73
2023/02/20 06:35:13;;;;;;;14.30;8.80;;;6.30;99.90;;;;;;2616071;39;20532;-73
2023/02/20 06:41:01;;;;;;;20.30;13.80;;;6.20;99.90;;;;;;2615720;54;20246;-72
2023/02/20 06:46:49;;;;;;;21.13;14.83;;;6.20;99.90;;;;;;2615667;39;20476;-73
2023/02/20 06:52:36;;;;;;;21.60;12.83;;;6.20;99.90;;;;;;2615904;54;20114;-72
2023/02/20 06:58:24;;;;;;;36.40;20.70;;;6.20;99.90;;;;;;2615072;54;20138;-73
2023/02/20 07:10:31;;;;;;;22.07;16.07;;;6.30;99.90;;;;;;2615577;54;20383;-73
2023/02/20 07:13:14;;;;;;;38.53;20.20;;;6.30;99.90;;;;;;2614910;47;20507;-73
2023/02/20 07:15:40;;;;;;;22.70;16.93;;;6.30;99.90;;;;;;2615625;54;20162;-73
2023/02/20 07:21:27;;;;;;;23.47;15.87;;;6.30;99.90;;;;;;2615806;54;20644;-72
2023/02/20 07:27:15;;;;;;;26.03;18.73;;;6.30;99.90;;;;;;2615066;54;20130;-73
2023/02/20 07:33:03;;;;;;;35.37;20.77;;;6.30;99.90;;;;;;2615400;54;20174;-73
2023/02/20 07:38:59;;;;;;;24.20;16.10;;;6.30;99.90;;;;;;2615183;54;20129;-73
2023/02/20 07:44:48;;;;;;;26.93;18.10;;;6.40;99.90;;;;;;2615429;54;20399;-72
2023/02/20 07:50:35;;;;;;;23.17;14.77;;;6.50;99.90;;;;;;2615098;54;20504;-73
2023/02/20 07:56:24;;;;;;;31.07;20.90;;;6.50;99.90;;;;;;2615194;54;20126;-73
2023/02/20 08:02:11;;;;;;;36.17;21.60;;;6.60;99.90;;;;;;2615214;54;20423;-73
2023/02/20 08:07:59;;;;;;;33.07;22.43;;;6.60;99.90;;;;;;2615351;54;20126;-72
2023/02/20 08:17:46;;;;;;;22.90;15.17;;;6.70;99.90;;;;;;2614911;54;20392;-73
2023/02/20 08:23:34;;;;;;;21.00;14.40;;;6.80;99.90;;;;;;2615124;54;21246;-73
2023/02/20 08:29:21;;;;;;;21.50;14.50;;;6.70;99.90;;;;;;2615251;54;20122;-72
2023/02/20 08:35:09;;;;;;;25.10;16.63;;;6.90;99.90;;;;;;2615272;54;20163;-74
2023/02/20 08:40:58;;;;;;;22.53;16.77;;;6.90;99.90;;;;;;2615176;54;20122;-73
2023/02/20 08:46:50;;;;;;;22.80;15.03;;;6.90;99.90;;;;;;2615865;54;20367;-72
2023/02/20 08:52:37;;;;;;;32.00;19.50;;;6.80;99.90;;;;;;2616727;39;20935;-73
2023/02/20 08:58:25;;;;;;;25.20;18.13;;;7.00;99.90;;;;;;2616085;54;20154;-73
2023/02/20 09:04:15;;;;;;;18.73;13.63;;;6.90;99.90;;;;;;2615977;54;20479;-72
2023/02/20 09:10:04;;;;;;;17.77;11.60;;;7.00;99.90;;;;;;2616228;39;20820;-73
2023/02/20 09:13:15;;;;;;;22.97;14.33;;;7.00;99.90;;;;;;2615003;47;20419;-72
2023/02/20 09:15:40;;;;;;;25.70;13.27;;;7.00;99.90;;;;;;2615299;51;20937;-73
2023/02/20 09:21:28;;;;;;;18.43;11.87;;;7.10;99.90;;;;;;2615773;54;20138;-73
2023/02/20 09:27:16;;;;;;;23.13;12.83;;;7.10;99.90;;;;;;2615461;54;20629;-72
2023/02/20 09:33:04;;;;;;;13.03;9.60;;;7.10;99.90;;;;;;2615646;54;20126;-72
2023/02/20 09:38:52;;;;;;;21.43;14.50;;;7.10;99.90;;;;;;2615603;54;20118;-73
2023/02/20 09:57:25;;;;;;;21.60;13.30;;;7.30;99.90;;;;;;2615509;54;20350;-73
2023/02/20 10:09:42;;;;;;;20.47;12.97;;;7.40;99.90;;;;;;2615566;46;20378;-73
2023/02/20 10:15:51;;;;;;;21.17;13.27;;;7.50;99.90;;;;;;2615672;54;20197;-74
2023/02/20 10:28:15;;;;;;;26.67;15.40;;;7.70;99.90;;;;;;2615098;54;20471;-74
2023/02/20 10:40:53;;;;;;;23.53;9.90;;;8.00;99.90;;;;;;2614028;54;20381;-72
2023/02/20 10:53:25;;;;;;;11.90;8.93;;;8.10;99.90;;;;;;2614491;39;20733;-73
2023/02/20 11:05:48;;;;;;;22.10;12.50;;;8.30;99.90;;;;;;2613703;54;20512;-73
2023/02/20 11:11:43;;;;;;;20.40;13.03;;;8.60;99.90;;;;;;2613914;54;20550;-72
2023/02/20 11:20:55;;;;;;;14.00;10.67;;;8.50;99.90;;;;;;2615490;54;20950;-73
2023/02/20 11:26:43;;;;;;;17.70;9.33;;;8.50;99.90;;;;;;2615137;54;20406;-73
2023/02/20 11:32:41;;;;;;;14.07;10.63;;;8.50;99.90;;;;;;2615381;54;20366;-72
2023/02/20 11:38:33;;;;;;;15.80;10.63;;;8.30;99.90;;;;;;2615443;54;20382;-73
2023/02/20 11:44:23;;;;;;;16.07;9.77;;;8.30;99.90;;;;;;2615438;54;20355;-73
2023/02/20 11:50:19;;;;;;;18.03;11.83;;;8.30;99.90;;;;;;2615235;54;20498;-74
2023/02/20 11:56:12;;;;;;;13.00;9.87;;;8.10;99.90;;;;;;2615054;54;20378;-73
2023/02/20 11:59:16;;;;;;;17.93;10.50;;;8.20;99.90;;;;;;2615039;54;20520;-72
2023/02/20 12:01:41;;;;;;;17.13;10.60;;;8.10;99.90;;;;;;2615593;39;21240;-73
2023/02/20 12:07:33;;;;;;;29.20;12.60;;;8.20;99.90;;;;;;2615216;54;20127;-73
2023/02/20 12:13:21;;;;;;;17.17;12.43;;;8.30;99.90;;;;;;2615290;54;20379;-73
2023/02/20 12:16:22;;;;;;;19.27;12.57;;;8.20;99.90;;;;;;2614604;47;20435;-73
2023/02/20 12:18:56;;;;;;;18.20;11.77;;;8.20;99.90;;;;;;2615482;47;21365;-74
2023/02/20 12:24:53;;;;;;;20.30;12.13;;;8.10;99.90;;;;;;2615907;46;20402;-72
2023/02/20 12:41:43;;;;;;;22.17;14.97;;;8.20;99.90;;;;;;2615032;31;20878;-73
2023/02/20 12:47:36;;;;;;;18.70;13.67;;;8.20;99.90;;;;;;2614409;54;20425;-73
2023/02/20 12:59:59;;;;;;;23.53;12.90;;;8.30;99.90;;;;;;2614395;54;20369;-73
2023/02/20 13:05:48;;;;;;;27.27;16.70;;;8.40;99.90;;;;;;2614630;54;20391;-73
2023/02/20 13:11:41;;;;;;;18.13;13.87;;;8.30;99.90;;;;;;2614635;39;20489;-73
2023/02/20 13:21:00;;;;;;;24.70;13.33;;;8.50;99.90;;;;;;2615848;54;20379;-73
2023/02/20 13:26:51;;;;;;;18.73;13.17;;;8.30;99.90;;;;;;2615402;54;20410;-72
2023/02/20 13:32:38;;;;;;;20.30;13.50;;;8.20;99.90;;;;;;2616335;39;20826;-74
2023/02/20 13:38:27;;;;;;;22.10;11.40;;;8.30;99.90;;;;;;2615769;54;20367;-73
2023/02/20 13:44:31;;;;;;;17.57;10.43;;;8.20;99.90;;;;;;2615706;54;20379;-72
2023/02/20 13:50:30;;;;;;;15.43;10.50;;;8.20;99.90;;;;;;2615590;54;20391;-73
2023/02/20 14:03:10;;;;;;;22.10;16.43;;;8.20;99.90;;;;;;2615437;54;20374;-72
2023/02/20 14:09:10;;;;;;;34.40;18.17;;;8.20;99.90;;;;;;2615350;54;20419;-73
2023/02/20 14:15:02;;;;;;;32.43;16.90;;;8.20;99.90;;;;;;2615577;54;20422;-73
2023/02/20 14:24:19;;;;;;;25.63;19.33;;;8.30;99.90;;;;;;2615673;46;20430;-73
2023/02/20 14:36:58;;;;;;;32.93;19.00;;;8.20;99.90;;;;;;2615490;46;20865;-72
2023/02/20 14:42:46;;;;;;;34.03;21.80;;;8.20;99.90;;;;;;2615482;54;20447;-72
2023/02/20 14:48:39;;;;;;;19.50;14.50;;;8.20;99.90;;;;;;2615523;54;20370;-73
2023/02/20 14:54:28;;;;;;;39.47;23.73;;;8.30;99.90;;;;;;2615377;54;20415;-73
2023/02/20 15:00:16;;;;;;;27.90;17.83;;;8.30;99.90;;;;;;2615267;46;20399;-72
2023/02/20 15:06:05;;;;;;;33.43;21.93;;;8.30;99.90;;;;;;2615098;54;20130;-73
2023/02/20 15:11:58;;;;;;;32.70;20.57;;;8.30;99.90;;;;;;2615363;54;20394;-72
2023/02/20 15:17:45;;;;;;;37.50;21.73;;;8.40;99.90;;;;;;2615240;54;20479;-73
2023/02/20 15:23:42;;;;;;;34.93;21.60;;;8.40;99.90;;;;;;2615790;39;20534;-73
2023/02/20 15:29:30;;;;;;;36.27;21.60;;;8.40;99.90;;;;;;2615683;54;20395;-73
2023/02/20 15:35:23;;;;;;;42.77;20.67;;;8.40;99.90;;;;;;2615186;54;20211;-72
2023/02/20 15:41:11;;;;;;;31.30;16.50;;;8.40;99.90;;;;;;2615660;54;20951;-73
2023/02/20 15:46:59;;;;;;;34.37;19.60;;;8.50;99.90;;;;;;2614953;54;20239;-72
2023/02/20 15:52:47;;;;;;;28.10;14.97;;;8.50;99.90;;;;;;2616007;54;20395;-72
2023/02/20 15:58:37;;;;;;;52.20;19.87;;;8.50;99.90;;;;;;2615813;54;20523;-73
2023/02/20 16:04:25;;;;;;;41.70;25.77;;;8.50;99.90;;;;;;2616664;39;20828;-73
2023/02/20 16:10:18;;;;;;;36.93;21.60;;;8.50;99.90;;;;;;2615787;54;20146;-73
2023/02/20 16:19:35;;;;;;;30.70;20.70;;;8.60;99.90;;;;;;2616193;54;20390;-73
2023/02/20 16:22:01;;;;;;;38.13;26.30;;;8.60;99.90;;;;;;2615935;54;20428;-73
2023/02/20 16:27:53;;;;;;;35.40;22.87;;;8.60;99.90;;;;;;2615639;54;20548;-73
2023/02/20 16:33:41;;;;;;;33.10;22.40;;;8.60;99.90;;;;;;2616108;54;20414;-73
2023/02/20 16:39:29;;;;;;;35.90;22.93;;;8.60;99.90;;;;;;2616046;46;20226;-72
2023/02/20 16:45:19;;;;;;;38.57;21.07;;;8.60;99.90;;;;;;2615998;46;20141;-73
2023/02/20 16:51:10;;;;;;;23.53;17.17;;;8.60;99.90;;;;;;2615684;54;20503;-73
2023/02/20 16:56:57;;;;;;;34.07;22.20;;;8.60;99.90;;;;;;2615489;54;20394;-73
2023/02/20 17:02:45;;;;;;;34.50;21.37;;;8.60;99.90;;;;;;2615746;54;20705;-72
2023/02/20 17:08:33;;;;;;;26.80;17.07;;;8.60;99.90;;;;;;2615776;54;20960;-73
2023/02/20 17:14:21;;;;;;;27.13;20.57;;;8.60;99.90;;;;;;2615746;54;20119;-72
2023/02/20 17:24:05;;;;;;;31.20;21.27;;;8.70;99.90;;;;;;2615691;54;20353;-73
2023/02/20 17:29:53;;;;;;;30.33;19.57;;;8.70;99.90;;;;;;2615621;54;20350;-74
2023/02/20 17:35:41;;;;;;;23.90;17.53;;;8.70;99.90;;;;;;2615601;54;20394;-73
2023/02/20 17:41:28;;;;;;;21.30;13.40;;;8.70;99.90;;;;;;2615627;54;20126;-74
2023/02/20 17:47:16;;;;;;;28.07;16.73;;;8.80;99.90;;;;;;2615670;54;20644;-73
2023/02/20 17:53:04;;;;;;;27.73;19.10;;;8.70;99.90;;;;;;2615970;54;20363;-73
2023/02/20 17:58:52;;;;;;;36.80;20.70;;;8.70;99.90;;;;;;2615475;54;20126;-74
2023/02/20 18:04:40;;;;;;;25.57;18.47;;;8.80;99.90;;;;;;2615779;54;20648;-73
2023/02/20 18:10:28;;;;;;;32.80;18.80;;;8.70;99.90;;;;;;2615561;54;20356;-73
2023/02/20 18:16:15;;;;;;;26.77;19.70;;;8.80;99.90;;;;;;2615389;54;20151;-72
2023/02/20 18:19:33;;;;;;;26.17;19.23;;;8.80;99.90;;;;;;2614739;47;20521;-73
2023/02/20 18:21:59;;;;;;;33.53;19.63;;;8.70;99.90;;;;;;2615424;54;20653;-73
2023/02/20 18:27:48;;;;;;;32.70;20.40;;;8.80;99.90;;;;;;2615275;54;20119;-73
2023/02/20 18:33:35;;;;;;;29.43;16.13;;;8.80;99.90;;;;;;2615775;54;20378;-73
2023/02/20 18:39:23;;;;;;;33.30;20.83;;;8.80;99.90;;;;;;2615389;54;20390;-73
2023/02/20 18:45:11;;;;;;;26.87;20.17;;;8.80;99.90;;;;;;2615550;54;20394;-74
2023/02/20 18:51:00;;;;;;;39.83;23.43;;;8.80;99.90;;;;;;2615631;54;20158;-74
2023/02/20 18:56:49;;;;;;;31.73;20.73;;;8.80;99.90;;;;;;2615304;54;20351;-73
2023/02/20 19:02:37;;;;;;;32.23;20.80;;;8.80;99.90;;;;;;2615302;54;20400;-72
2023/02/20 19:08:24;;;;;;;30.33;19.70;;;8.80;99.90;;;;;;2615212;54;20126;-74
2023/02/20 19:14:12;;;;;;;34.60;23.73;;;8.90;99.90;;;;;;2615596;54;20657;-73
2023/02/20 19:24:07;;;;;;;34.77;24.50;;;8.90;99.90;;;;;;2615775;54;20391;-73
2023/02/20 19:29:55;;;;;;;34.97;24.20;;;8.80;99.90;;;;;;2615140;54;20414;-73
2023/02/20 19:35:42;;;;;;;32.97;21.07;;;8.80;99.90;;;;;;2615236;54;20166;-73
2023/02/20 19:41:33;;;;;;;35.20;22.20;;;8.80;99.90;;;;;;2615334;54;20154;-74
2023/02/20 19:47:21;;;;;;;32.60;21.23;;;8.80;99.90;;;;;;2615433;54;20433;-72
2023/02/20 19:53:09;;;;;;;38.83;23.13;;;8.70;99.90;;;;;;2615125;54;21068;-74
2023/02/20 19:58:57;;;;;;;29.57;20.13;;;8.70;99.90;;;;;;2615005;54;20146;-74
2023/02/20 20:04:45;;;;;;;35.07;20.60;;;8.70;99.90;;;;;;2615255;54;20146;-74
2023/02/20 20:10:32;;;;;;;30.97;20.20;;;8.70;99.90;;;;;;2615636;39;20619;-74
2023/02/20 20:16:20;;;;;;;25.90;15.40;;;8.70;99.90;;;;;;2614918;54;20660;-73
2023/02/20 20:19:34;;;;;;;32.57;23.23;;;8.70;99.90;;;;;;2614207;54;20416;-72
2023/02/20 20:21:59;;;;;;;32.73;19.80;;;8.70;99.90;;;;;;2614711;39;20582;-73
2023/02/20 20:27:49;;;;;;;25.67;16.70;;;8.80;99.90;;;;;;2615159;54;20182;-74
2023/02/20 20:33:37;;;;;;;34.53;22.40;;;8.70;99.90;;;;;;2614976;54;20403;-73
2023/02/20 20:39:25;;;;;;;36.03;24.00;;;8.70;99.90;;;;;;2615358;54;20351;-73
2023/02/20 20:45:15;;;;;;;27.07;17.57;;;8.70;99.90;;;;;;2615818;54;20212;-73
2023/02/20 20:51:02;;;;;;;25.57;15.13;;;8.70;99.90;;;;;;2615991;54;20539;-74
2023/02/20 20:56:51;;;;;;;34.50;22.17;;;8.70;99.90;;;;;;2615779;54;20126;-73
2023/02/20 21:02:38;;;;;;;34.00;22.13;;;8.70;99.90;;;;;;2615998;54;20350;-73
2023/02/20 21:08:26;;;;;;;32.13;20.97;;;8.70;99.90;;;;;;2616044;54;20679;-73
2023/02/20 21:14:18;;;;;;;38.90;23.67;;;8.70;99.90;;;;;;2615948;54;20118;-74
2023/02/20 21:30:28;;;;;;;42.47;23.80;;;8.70;99.90;;;;;;2614284;54;20376;-73
2023/02/20 21:36:15;;;;;;;28.90;17.17;;;8.70;99.90;;;;;;2614403;54;20143;-73
2023/02/20 21:51:29;;;;;;;37.83;22.27;;;8.70;99.90;;;;;;2614380;54;21463;-73
2023/02/20 21:57:18;;;;;;;31.57;20.00;;;8.60;99.90;;;;;;2614029;54;20733;-74
